Co Bluffs, Iowa
Current Conditions -  °F | °C
As of 5:52 PM on Sunday 25 Jan 2015 (Local Time) from KOMA Reporting Station
Overcast Overcast  
Wind Chill: 33°   Ceiling: 3400
Heat Index: 38°   Visibility: 10mi
Dew Point: 32°   Wind: 6mph
Humidity: 79%   Direction: 330°NNW
Pressure: 30.08"   Gusts: NA
Location:  41.2617°N, 95.8608°W
Report Text: KOMA 252352Z 33005KT 10SM FEW029 OVC034 03/00 A3008 RMK AO2 SLP192 T00330000 10061 20033 51022
Loading
Personal Weather Stations






























Interactive Weather Map New forecast layout! Learn more

10-Day Weather Forecast

Advertisements
Track Severe Weather on mobile